Terminal Aerodrome Forecast
Issued by NWS Detroit/Pontiac, MI

Home | Current Version | Previous Version | Text Only | Print | Product List | Glossary On
Versions: 1 2 3 4 5 6 7 8 9 10 11 12 13 14 15 16 17 18 19 20
000
FTUS43 KDTX 291732
TAFFNT
TAF
KFNT 291732Z 2918/3018 17005KT 6SM -SHRA BKN045 OVC080
      TEMPO 2922/3001 4SM -RA SCT025 OVC045
     FM300200 14005KT 3SM BR BKN024 OVC040
     FM300700 VRB03KT 1SM BR OVC007
     FM301400 VRB03KT 3SM BR BKN025
     FM301600 20005KT P6SM BKN040=

USA.gov is the U.S. government's official web portal to all federal, state and local government web resources and services.